sensor_id;sensor_type;location;lat;lon;timestamp;P1;durP1;ratioP1;P2;durP2;ratioP2
20627;SDS011;10473;42.734;24.258;2022-08-04T00:00:51;1.47;;;1.37;;
20627;SDS011;10473;42.734;24.258;2022-08-04T00:03:28;1.97;;;1.53;;
20627;SDS011;10473;42.734;24.258;2022-08-04T00:06:01;1.43;;;1.33;;
20627;SDS011;10473;42.734;24.258;2022-08-04T00:08:43;2.13;;;1.43;;
20627;SDS011;10473;42.734;24.258;2022-08-04T00:11:13;2.20;;;1.50;;
20627;SDS011;10473;42.734;24.258;2022-08-04T00:13:44;1.70;;;1.60;;
20627;SDS011;10473;42.734;24.258;2022-08-04T00:16:19;1.60;;;1.50;;
20627;SDS011;10473;42.734;24.258;2022-08-04T00:18:49;1.57;;;1.47;;
20627;SDS011;10473;42.734;24.258;2022-08-04T00:21:23;1.70;;;1.60;;
20627;SDS011;10473;42.734;24.258;2022-08-04T00:23:54;2.47;;;1.67;;
20627;SDS011;10473;42.734;24.258;2022-08-04T00:26:22;2.37;;;1.60;;
20627;SDS011;10473;42.734;24.258;2022-08-04T00:28:51;1.53;;;1.43;;
20627;SDS011;10473;42.734;24.258;2022-08-04T00:31:18;1.60;;;1.50;;
20627;SDS011;10473;42.734;24.258;2022-08-04T00:33:48;1.50;;;1.40;;
20627;SDS011;10473;42.734;24.258;2022-08-04T00:36:16;1.93;;;1.40;;
20627;SDS011;10473;42.734;24.258;2022-08-04T00:38:45;1.37;;;1.27;;
20627;SDS011;10473;42.734;24.258;2022-08-04T00:41:17;2.43;;;1.33;;
20627;SDS011;10473;42.734;24.258;2022-08-04T00:43:53;1.83;;;1.70;;
20627;SDS011;10473;42.734;24.258;2022-08-04T00:46:38;1.60;;;1.47;;
20627;SDS011;10473;42.734;24.258;2022-08-04T00:49:20;1.40;;;1.30;;
20627;SDS011;10473;42.734;24.258;2022-08-04T00:52:01;2.50;;;1.50;;
20627;SDS011;10473;42.734;24.258;2022-08-04T00:54:40;3.87;;;1.30;;
20627;SDS011;10473;42.734;24.258;2022-08-04T00:57:29;1.40;;;1.30;;
20627;SDS011;10473;42.734;24.258;2022-08-04T01:00:05;1.37;;;1.27;;
20627;SDS011;10473;42.734;24.258;2022-08-04T01:02:36;1.77;;;1.63;;
20627;SDS011;10473;42.734;24.258;2022-08-04T01:05:14;1.83;;;1.57;;
20627;SDS011;10473;42.734;24.258;2022-08-04T01:07:58;1.50;;;1.30;;
20627;SDS011;10473;42.734;24.258;2022-08-04T01:10:40;1.60;;;1.50;;
20627;SDS011;10473;42.734;24.258;2022-08-04T01:13:31;1.60;;;1.40;;
20627;SDS011;10473;42.734;24.258;2022-08-04T01:16:16;1.57;;;1.47;;
20627;SDS011;10473;42.734;24.258;2022-08-04T01:18:50;1.80;;;1.57;;
20627;SDS011;10473;42.734;24.258;2022-08-04T01:21:45;2.97;;;1.70;;
20627;SDS011;10473;42.734;24.258;2022-08-04T01:24:46;1.30;;;1.20;;
20627;SDS011;10473;42.734;24.258;2022-08-04T01:27:26;2.17;;;1.50;;
20627;SDS011;10473;42.734;24.258;2022-08-04T01:30:15;1.53;;;1.43;;
20627;SDS011;10473;42.734;24.258;2022-08-04T01:32:46;1.80;;;1.57;;
20627;SDS011;10473;42.734;24.258;2022-08-04T01:35:20;1.80;;;1.50;;
20627;SDS011;10473;42.734;24.258;2022-08-04T01:37:54;1.50;;;1.40;;
20627;SDS011;10473;42.734;24.258;2022-08-04T01:40:27;1.57;;;1.47;;
20627;SDS011;10473;42.734;24.258;2022-08-04T01:42:56;1.87;;;1.67;;
20627;SDS011;10473;42.734;24.258;2022-08-04T01:45:27;1.60;;;1.40;;
20627;SDS011;10473;42.734;24.258;2022-08-04T01:47:56;1.50;;;1.40;;
20627;SDS011;10473;42.734;24.258;2022-08-04T01:50:24;1.63;;;1.47;;
20627;SDS011;10473;42.734;24.258;2022-08-04T01:52:53;1.60;;;1.50;;
20627;SDS011;10473;42.734;24.258;2022-08-04T01:55:22;1.43;;;1.30;;
20627;SDS011;10473;42.734;24.258;2022-08-04T01:57:54;2.47;;;2.03;;
20627;SDS011;10473;42.734;24.258;2022-08-04T02:00:26;1.83;;;1.40;;
20627;SDS011;10473;42.734;24.258;2022-08-04T02:02:55;1.60;;;1.50;;
20627;SDS011;10473;42.734;24.258;2022-08-04T02:05:24;1.63;;;1.27;;
20627;SDS011;10473;42.734;24.258;2022-08-04T02:07:57;4.37;;;1.50;;
20627;SDS011;10473;42.734;24.258;2022-08-04T02:10:41;1.50;;;1.40;;
20627;SDS011;10473;42.734;24.258;2022-08-04T02:13:21;1.40;;;1.30;;
20627;SDS011;10473;42.734;24.258;2022-08-04T02:15:57;3.53;;;1.40;;
20627;SDS011;10473;42.734;24.258;2022-08-04T02:18:29;1.43;;;1.33;;
20627;SDS011;10473;42.734;24.258;2022-08-04T02:21:02;1.73;;;1.57;;
20627;SDS011;10473;42.734;24.258;2022-08-04T02:23:33;1.63;;;1.53;;
20627;SDS011;10473;42.734;24.258;2022-08-04T02:26:03;2.43;;;1.40;;
20627;SDS011;10473;42.734;24.258;2022-08-04T02:28:34;1.50;;;1.40;;
20627;SDS011;10473;42.734;24.258;2022-08-04T02:31:13;1.50;;;1.37;;
20627;SDS011;10473;42.734;24.258;2022-08-04T02:33:54;2.17;;;1.30;;
20627;SDS011;10473;42.734;24.258;2022-08-04T02:36:27;1.50;;;1.40;;
20627;SDS011;10473;42.734;24.258;2022-08-04T02:38:58;1.60;;;1.50;;
20627;SDS011;10473;42.734;24.258;2022-08-04T02:41:27;1.53;;;1.43;;
20627;SDS011;10473;42.734;24.258;2022-08-04T02:43:57;2.00;;;1.33;;
20627;SDS011;10473;42.734;24.258;2022-08-04T02:46:27;1.60;;;1.23;;
20627;SDS011;10473;42.734;24.258;2022-08-04T02:48:56;1.20;;;1.10;;
20627;SDS011;10473;42.734;24.258;2022-08-04T02:51:26;2.97;;;1.57;;
20627;SDS011;10473;42.734;24.258;2022-08-04T02:53:55;2.10;;;1.50;;
20627;SDS011;10473;42.734;24.258;2022-08-04T02:56:26;1.97;;;1.50;;
20627;SDS011;10473;42.734;24.258;2022-08-04T02:58:58;3.20;;;1.47;;
20627;SDS011;10473;42.734;24.258;2022-08-04T03:01:29;1.67;;;1.30;;
20627;SDS011;10473;42.734;24.258;2022-08-04T03:04:05;1.93;;;1.73;;
20627;SDS011;10473;42.734;24.258;2022-08-04T03:16:09;1.63;;;1.53;;
20627;SDS011;10473;42.734;24.258;2022-08-04T03:22:07;1.57;;;1.47;;
20627;SDS011;10473;42.734;24.258;2022-08-04T03:27:59;3.50;;;1.37;;
20627;SDS011;10473;42.734;24.258;2022-08-04T03:30:57;1.60;;;1.43;;
20627;SDS011;10473;42.734;24.258;2022-08-04T03:33:49;1.97;;;1.77;;
20627;SDS011;10473;42.734;24.258;2022-08-04T03:43:03;1.90;;;1.43;;
20627;SDS011;10473;42.734;24.258;2022-08-04T03:52:12;1.57;;;1.30;;
20627;SDS011;10473;42.734;24.258;2022-08-04T03:55:37;1.70;;;1.60;;
20627;SDS011;10473;42.734;24.258;2022-08-04T04:01:21;2.57;;;1.83;;
20627;SDS011;10473;42.734;24.258;2022-08-04T04:10:23;1.97;;;1.40;;
20627;SDS011;10473;42.734;24.258;2022-08-04T04:13:08;1.53;;;1.43;;
20627;SDS011;10473;42.734;24.258;2022-08-04T04:19:18;1.67;;;1.57;;
20627;SDS011;10473;42.734;24.258;2022-08-04T04:25:12;3.20;;;2.50;;
20627;SDS011;10473;42.734;24.258;2022-08-04T04:28:00;3.93;;;2.43;;
20627;SDS011;10473;42.734;24.258;2022-08-04T04:30:42;4.97;;;3.53;;
20627;SDS011;10473;42.734;24.258;2022-08-04T04:33:24;3.97;;;3.00;;
20627;SDS011;10473;42.734;24.258;2022-08-04T04:36:06;4.73;;;3.20;;
20627;SDS011;10473;42.734;24.258;2022-08-04T04:38:43;3.17;;;2.73;;
20627;SDS011;10473;42.734;24.258;2022-08-04T04:41:42;4.13;;;3.27;;
20627;SDS011;10473;42.734;24.258;2022-08-04T04:47:28;6.07;;;3.87;;
20627;SDS011;10473;42.734;24.258;2022-08-04T04:50:05;5.73;;;3.20;;
20627;SDS011;10473;42.734;24.258;2022-08-04T04:52:39;5.00;;;3.50;;
20627;SDS011;10473;42.734;24.258;2022-08-04T04:55:16;8.63;;;3.47;;
20627;SDS011;10473;42.734;24.258;2022-08-04T04:57:47;6.97;;;4.10;;
20627;SDS011;10473;42.734;24.258;2022-08-04T05:00:19;6.80;;;4.00;;
20627;SDS011;10473;42.734;24.258;2022-08-04T05:03:02;5.80;;;3.43;;
20627;SDS011;10473;42.734;24.258;2022-08-04T05:05:51;4.30;;;3.60;;
20627;SDS011;10473;42.734;24.258;2022-08-04T05:09:00;3.00;;;2.40;;
20627;SDS011;10473;42.734;24.258;2022-08-04T05:14:51;2.43;;;2.07;;
20627;SDS011;10473;42.734;24.258;2022-08-04T05:17:24;2.83;;;2.03;;
20627;SDS011;10473;42.734;24.258;2022-08-04T05:19:56;3.63;;;2.73;;
20627;SDS011;10473;42.734;24.258;2022-08-04T05:22:27;2.50;;;2.30;;
20627;SDS011;10473;42.734;24.258;2022-08-04T05:25:00;4.57;;;2.03;;
20627;SDS011;10473;42.734;24.258;2022-08-04T05:27:34;2.00;;;1.90;;
20627;SDS011;10473;42.734;24.258;2022-08-04T05:30:06;2.33;;;2.13;;
20627;SDS011;10473;42.734;24.258;2022-08-04T05:32:39;4.50;;;2.23;;
20627;SDS011;10473;42.734;24.258;2022-08-04T05:35:15;2.10;;;1.90;;
20627;SDS011;10473;42.734;24.258;2022-08-04T05:37:48;1.93;;;1.83;;
20627;SDS011;10473;42.734;24.258;2022-08-04T05:40:19;2.57;;;2.03;;
20627;SDS011;10473;42.734;24.258;2022-08-04T05:42:51;2.60;;;2.33;;
20627;SDS011;10473;42.734;24.258;2022-08-04T05:45:21;2.07;;;1.93;;
20627;SDS011;10473;42.734;24.258;2022-08-04T05:47:52;2.03;;;1.93;;
20627;SDS011;10473;42.734;24.258;2022-08-04T05:50:20;1.90;;;1.73;;
20627;SDS011;10473;42.734;24.258;2022-08-04T05:52:49;3.67;;;2.47;;
20627;SDS011;10473;42.734;24.258;2022-08-04T05:55:17;2.60;;;2.20;;
20627;SDS011;10473;42.734;24.258;2022-08-04T05:57:47;2.77;;;2.53;;
20627;SDS011;10473;42.734;24.258;2022-08-04T06:00:15;2.50;;;2.30;;
20627;SDS011;10473;42.734;24.258;2022-08-04T06:02:44;3.30;;;2.60;;
20627;SDS011;10473;42.734;24.258;2022-08-04T06:05:15;4.87;;;2.53;;
20627;SDS011;10473;42.734;24.258;2022-08-04T06:07:43;2.83;;;2.23;;
20627;SDS011;10473;42.734;24.258;2022-08-04T06:10:12;3.63;;;2.30;;
20627;SDS011;10473;42.734;24.258;2022-08-04T06:12:43;2.43;;;2.17;;
20627;SDS011;10473;42.734;24.258;2022-08-04T06:15:16;2.50;;;2.30;;
20627;SDS011;10473;42.734;24.258;2022-08-04T06:17:47;3.73;;;2.13;;
20627;SDS011;10473;42.734;24.258;2022-08-04T06:20:17;2.30;;;2.10;;
20627;SDS011;10473;42.734;24.258;2022-08-04T06:22:48;2.50;;;2.30;;
20627;SDS011;10473;42.734;24.258;2022-08-04T06:25:20;2.53;;;2.33;;
20627;SDS011;10473;42.734;24.258;2022-08-04T06:27:50;1.70;;;1.60;;
20627;SDS011;10473;42.734;24.258;2022-08-04T06:30:20;3.50;;;1.80;;
20627;SDS011;10473;42.734;24.258;2022-08-04T06:32:52;1.73;;;1.57;;
20627;SDS011;10473;42.734;24.258;2022-08-04T06:35:23;3.03;;;2.10;;
20627;SDS011;10473;42.734;24.258;2022-08-04T06:37:52;2.27;;;2.07;;
20627;SDS011;10473;42.734;24.258;2022-08-04T06:40:22;2.33;;;2.00;;
20627;SDS011;10473;42.734;24.258;2022-08-04T06:42:50;2.47;;;2.23;;
20627;SDS011;10473;42.734;24.258;2022-08-04T06:45:19;2.20;;;2.10;;
20627;SDS011;10473;42.734;24.258;2022-08-04T06:47:48;2.13;;;1.97;;
20627;SDS011;10473;42.734;24.258;2022-08-04T06:50:16;2.33;;;2.13;;
20627;SDS011;10473;42.734;24.258;2022-08-04T06:52:45;1.93;;;1.83;;
20627;SDS011;10473;42.734;24.258;2022-08-04T06:55:13;2.23;;;2.03;;
20627;SDS011;10473;42.734;24.258;2022-08-04T06:57:41;2.50;;;2.30;;
20627;SDS011;10473;42.734;24.258;2022-08-04T07:00:11;2.60;;;2.33;;
20627;SDS011;10473;42.734;24.258;2022-08-04T07:02:41;1.83;;;1.73;;
20627;SDS011;10473;42.734;24.258;2022-08-04T07:05:11;2.30;;;2.10;;
20627;SDS011;10473;42.734;24.258;2022-08-04T07:07:40;2.10;;;1.90;;
20627;SDS011;10473;42.734;24.258;2022-08-04T07:10:10;2.50;;;2.00;;
20627;SDS011;10473;42.734;24.258;2022-08-04T07:12:39;1.93;;;1.83;;
20627;SDS011;10473;42.734;24.258;2022-08-04T07:15:08;4.60;;;3.20;;
20627;SDS011;10473;42.734;24.258;2022-08-04T07:17:37;3.17;;;2.10;;
20627;SDS011;10473;42.734;24.258;2022-08-04T07:20:07;2.00;;;1.90;;
20627;SDS011;10473;42.734;24.258;2022-08-04T07:22:35;2.40;;;2.20;;
20627;SDS011;10473;42.734;24.258;2022-08-04T07:25:07;2.07;;;1.97;;
20627;SDS011;10473;42.734;24.258;2022-08-04T07:27:39;2.00;;;1.90;;
20627;SDS011;10473;42.734;24.258;2022-08-04T07:30:07;2.00;;;1.90;;
20627;SDS011;10473;42.734;24.258;2022-08-04T07:32:36;2.77;;;2.53;;
20627;SDS011;10473;42.734;24.258;2022-08-04T07:35:05;2.30;;;2.10;;
20627;SDS011;10473;42.734;24.258;2022-08-04T07:37:34;2.07;;;1.93;;
20627;SDS011;10473;42.734;24.258;2022-08-04T07:40:02;2.40;;;2.20;;
20627;SDS011;10473;42.734;24.258;2022-08-04T07:42:31;2.77;;;2.30;;
20627;SDS011;10473;42.734;24.258;2022-08-04T07:45:00;2.30;;;2.10;;
20627;SDS011;10473;42.734;24.258;2022-08-04T07:47:28;2.27;;;2.17;;
20627;SDS011;10473;42.734;24.258;2022-08-04T07:49:56;2.40;;;2.20;;
20627;SDS011;10473;42.734;24.258;2022-08-04T07:52:24;2.97;;;2.67;;
20627;SDS011;10473;42.734;24.258;2022-08-04T07:54:53;1.83;;;1.73;;
20627;SDS011;10473;42.734;24.258;2022-08-04T07:57:21;3.10;;;2.00;;
20627;SDS011;10473;42.734;24.258;2022-08-04T07:59:48;2.50;;;2.30;;
20627;SDS011;10473;42.734;24.258;2022-08-04T08:02:18;1.73;;;1.50;;
20627;SDS011;10473;42.734;24.258;2022-08-04T08:04:47;3.33;;;2.10;;
20627;SDS011;10473;42.734;24.258;2022-08-04T08:07:17;2.40;;;2.20;;
20627;SDS011;10473;42.734;24.258;2022-08-04T08:09:45;2.50;;;2.30;;
20627;SDS011;10473;42.734;24.258;2022-08-04T08:12:13;2.10;;;1.90;;
20627;SDS011;10473;42.734;24.258;2022-08-04T08:14:41;2.30;;;2.10;;
20627;SDS011;10473;42.734;24.258;2022-08-04T08:17:09;2.60;;;2.40;;
20627;SDS011;10473;42.734;24.258;2022-08-04T08:19:38;2.10;;;2.00;;
20627;SDS011;10473;42.734;24.258;2022-08-04T08:22:06;2.30;;;2.10;;
20627;SDS011;10473;42.734;24.258;2022-08-04T08:24:36;2.80;;;2.07;;
20627;SDS011;10473;42.734;24.258;2022-08-04T08:27:05;2.00;;;1.90;;
20627;SDS011;10473;42.734;24.258;2022-08-04T08:29:33;2.97;;;2.53;;
20627;SDS011;10473;42.734;24.258;2022-08-04T08:32:02;4.20;;;2.40;;
20627;SDS011;10473;42.734;24.258;2022-08-04T08:34:33;2.60;;;2.27;;
20627;SDS011;10473;42.734;24.258;2022-08-04T08:37:03;4.47;;;2.47;;
20627;SDS011;10473;42.734;24.258;2022-08-04T08:39:37;2.73;;;2.53;;
20627;SDS011;10473;42.734;24.258;2022-08-04T08:42:14;4.23;;;2.20;;
20627;SDS011;10473;42.734;24.258;2022-08-04T08:54:31;7.87;;;4.80;;
20627;SDS011;10473;42.734;24.258;2022-08-04T08:57:14;3.63;;;2.10;;
20627;SDS011;10473;42.734;24.258;2022-08-04T08:59:54;2.33;;;2.13;;
20627;SDS011;10473;42.734;24.258;2022-08-04T09:05:37;2.17;;;1.97;;
20627;SDS011;10473;42.734;24.258;2022-08-04T09:08:20;6.40;;;2.40;;
20627;SDS011;10473;42.734;24.258;2022-08-04T09:10:59;6.63;;;4.57;;
20627;SDS011;10473;42.734;24.258;2022-08-04T09:13:33;4.57;;;3.70;;
20627;SDS011;10473;42.734;24.258;2022-08-04T09:16:07;3.53;;;2.50;;
20627;SDS011;10473;42.734;24.258;2022-08-04T09:18:44;2.97;;;2.60;;
20627;SDS011;10473;42.734;24.258;2022-08-04T09:21:22;5.20;;;2.30;;
20627;SDS011;10473;42.734;24.258;2022-08-04T09:23:59;2.37;;;2.20;;
20627;SDS011;10473;42.734;24.258;2022-08-04T09:26:39;2.43;;;2.10;;
20627;SDS011;10473;42.734;24.258;2022-08-04T09:29:13;2.43;;;2.23;;
20627;SDS011;10473;42.734;24.258;2022-08-04T09:31:47;4.93;;;3.10;;
20627;SDS011;10473;42.734;24.258;2022-08-04T09:34:24;1.87;;;1.77;;
20627;SDS011;10473;42.734;24.258;2022-08-04T09:37:02;1.65;;;1.55;;
20627;SDS011;10473;42.734;24.258;2022-08-04T09:39:41;2.00;;;1.90;;
20627;SDS011;10473;42.734;24.258;2022-08-04T09:42:19;1.80;;;1.67;;
20627;SDS011;10473;42.734;24.258;2022-08-04T09:44:55;1.55;;;1.45;;
20627;SDS011;10473;42.734;24.258;2022-08-04T09:47:31;1.70;;;1.60;;
20627;SDS011;10473;42.734;24.258;2022-08-04T09:50:06;2.03;;;1.92;;
20627;SDS011;10473;42.734;24.258;2022-08-04T09:52:44;1.77;;;1.67;;
20627;SDS011;10473;42.734;24.258;2022-08-04T09:55:17;2.22;;;1.90;;
20627;SDS011;10473;42.734;24.258;2022-08-04T09:58:00;2.03;;;1.75;;
20627;SDS011;10473;42.734;24.258;2022-08-04T10:00:43;2.38;;;2.17;;
20627;SDS011;10473;42.734;24.258;2022-08-04T10:03:14;1.90;;;1.80;;
20627;SDS011;10473;42.734;24.258;2022-08-04T10:05:48;1.73;;;1.63;;
20627;SDS011;10473;42.734;24.258;2022-08-04T10:08:33;1.73;;;1.63;;
20627;SDS011;10473;42.734;24.258;2022-08-04T10:11:20;1.58;;;1.48;;
20627;SDS011;10473;42.734;24.258;2022-08-04T10:13:59;1.80;;;1.65;;
20627;SDS011;10473;42.734;24.258;2022-08-04T10:16:36;1.95;;;1.75;;
20627;SDS011;10473;42.734;24.258;2022-08-04T10:19:16;1.70;;;1.60;;
20627;SDS011;10473;42.734;24.258;2022-08-04T10:21:54;1.80;;;1.70;;
20627;SDS011;10473;42.734;24.258;2022-08-04T10:24:35;1.80;;;1.60;;
20627;SDS011;10473;42.734;24.258;2022-08-04T10:27:15;1.77;;;1.67;;
20627;SDS011;10473;42.734;24.258;2022-08-04T10:29:49;1.45;;;1.35;;
20627;SDS011;10473;42.734;24.258;2022-08-04T10:32:20;1.80;;;1.70;;
20627;SDS011;10473;42.734;24.258;2022-08-04T10:35:01;2.20;;;2.03;;
20627;SDS011;10473;42.734;24.258;2022-08-04T10:37:38;2.00;;;1.90;;
20627;SDS011;10473;42.734;24.258;2022-08-04T10:40:11;2.70;;;1.90;;
20627;SDS011;10473;42.734;24.258;2022-08-04T10:43:02;1.73;;;1.63;;
20627;SDS011;10473;42.734;24.258;2022-08-04T10:45:38;1.77;;;1.67;;
20627;SDS011;10473;42.734;24.258;2022-08-04T10:48:12;1.80;;;1.70;;
20627;SDS011;10473;42.734;24.258;2022-08-04T10:50:52;2.47;;;1.58;;
20627;SDS011;10473;42.734;24.258;2022-08-04T10:53:28;2.20;;;1.63;;
20627;SDS011;10473;42.734;24.258;2022-08-04T10:56:00;1.92;;;1.83;;
20627;SDS011;10473;42.734;24.258;2022-08-04T10:58:32;1.48;;;1.38;;
20627;SDS011;10473;42.734;24.258;2022-08-04T11:01:07;1.90;;;1.70;;
20627;SDS011;10473;42.734;24.258;2022-08-04T11:03:43;1.70;;;1.60;;
20627;SDS011;10473;42.734;24.258;2022-08-04T11:06:17;1.55;;;1.45;;
20627;SDS011;10473;42.734;24.258;2022-08-04T11:08:47;2.15;;;1.90;;
20627;SDS011;10473;42.734;24.258;2022-08-04T11:11:20;1.67;;;1.58;;
20627;SDS011;10473;42.734;24.258;2022-08-04T11:13:56;1.95;;;1.85;;
20627;SDS011;10473;42.734;24.258;2022-08-04T11:16:28;1.85;;;1.75;;
20627;SDS011;10473;42.734;24.258;2022-08-04T11:19:05;2.75;;;2.15;;
20627;SDS011;10473;42.734;24.258;2022-08-04T11:21:42;1.98;;;1.88;;
20627;SDS011;10473;42.734;24.258;2022-08-04T11:24:15;1.90;;;1.80;;
20627;SDS011;10473;42.734;24.258;2022-08-04T11:26:47;1.90;;;1.80;;
20627;SDS011;10473;42.734;24.258;2022-08-04T11:29:21;2.45;;;1.80;;
20627;SDS011;10473;42.734;24.258;2022-08-04T11:31:57;1.90;;;1.80;;
20627;SDS011;10473;42.734;24.258;2022-08-04T11:34:26;2.33;;;1.40;;
20627;SDS011;10473;42.734;24.258;2022-08-04T11:36:57;1.98;;;1.88;;
20627;SDS011;10473;42.734;24.258;2022-08-04T11:39:33;2.90;;;1.73;;
20627;SDS011;10473;42.734;24.258;2022-08-04T11:42:04;2.00;;;1.83;;
20627;SDS011;10473;42.734;24.258;2022-08-04T11:44:39;2.05;;;1.85;;
20627;SDS011;10473;42.734;24.258;2022-08-04T11:47:13;2.00;;;1.90;;
20627;SDS011;10473;42.734;24.258;2022-08-04T11:49:48;2.20;;;2.00;;
20627;SDS011;10473;42.734;24.258;2022-08-04T11:52:22;1.50;;;1.40;;
20627;SDS011;10473;42.734;24.258;2022-08-04T11:54:52;1.58;;;1.48;;
20627;SDS011;10473;42.734;24.258;2022-08-04T11:57:22;2.20;;;2.00;;
20627;SDS011;10473;42.734;24.258;2022-08-04T11:59:51;1.48;;;1.38;;
20627;SDS011;10473;42.734;24.258;2022-08-04T12:05:20;1.60;;;1.50;;
20627;SDS011;10473;42.734;24.258;2022-08-04T12:07:56;2.03;;;1.30;;
20627;SDS011;10473;42.734;24.258;2022-08-04T12:10:40;1.50;;;1.40;;
20627;SDS011;10473;42.734;24.258;2022-08-04T12:13:16;1.40;;;1.30;;
20627;SDS011;10473;42.734;24.258;2022-08-04T12:15:56;1.70;;;1.60;;
20627;SDS011;10473;42.734;24.258;2022-08-04T12:18:38;3.00;;;1.47;;
20627;SDS011;10473;42.734;24.258;2022-08-04T12:21:13;1.90;;;1.67;;
20627;SDS011;10473;42.734;24.258;2022-08-04T12:23:52;1.67;;;1.37;;
20627;SDS011;10473;42.734;24.258;2022-08-04T12:26:27;2.40;;;1.77;;
20627;SDS011;10473;42.734;24.258;2022-08-04T12:28:59;1.57;;;1.47;;
20627;SDS011;10473;42.734;24.258;2022-08-04T12:31:31;2.83;;;1.77;;
20627;SDS011;10473;42.734;24.258;2022-08-04T12:34:09;1.83;;;1.73;;
20627;SDS011;10473;42.734;24.258;2022-08-04T12:36:42;1.52;;;1.42;;
20627;SDS011;10473;42.734;24.258;2022-08-04T12:39:14;1.92;;;1.58;;
20627;SDS011;10473;42.734;24.258;2022-08-04T12:44:33;1.80;;;1.70;;
20627;SDS011;10473;42.734;24.258;2022-08-04T12:47:03;3.72;;;1.80;;
20627;SDS011;10473;42.734;24.258;2022-08-04T12:49:34;2.10;;;1.90;;
20627;SDS011;10473;42.734;24.258;2022-08-04T12:52:04;1.77;;;1.60;;
20627;SDS011;10473;42.734;24.258;2022-08-04T12:54:33;1.80;;;1.50;;
20627;SDS011;10473;42.734;24.258;2022-08-04T12:57:03;1.95;;;1.83;;
20627;SDS011;10473;42.734;24.258;2022-08-04T12:59:36;2.20;;;1.60;;
20627;SDS011;10473;42.734;24.258;2022-08-04T13:02:05;2.20;;;1.38;;
20627;SDS011;10473;42.734;24.258;2022-08-04T13:04:42;1.50;;;1.40;;
20627;SDS011;10473;42.734;24.258;2022-08-04T13:07:12;2.00;;;1.80;;
20627;SDS011;10473;42.734;24.258;2022-08-04T13:09:45;1.50;;;1.40;;
20627;SDS011;10473;42.734;24.258;2022-08-04T13:12:14;1.75;;;1.65;;
20627;SDS011;10473;42.734;24.258;2022-08-04T13:14:48;1.40;;;1.30;;
20627;SDS011;10473;42.734;24.258;2022-08-04T13:17:18;1.80;;;1.70;;
20627;SDS011;10473;42.734;24.258;2022-08-04T13:19:48;1.83;;;1.55;;
20627;SDS011;10473;42.734;24.258;2022-08-04T13:22:22;1.73;;;1.63;;
20627;SDS011;10473;42.734;24.258;2022-08-04T13:24:51;1.73;;;1.63;;
20627;SDS011;10473;42.734;24.258;2022-08-04T13:27:20;1.40;;;1.30;;
20627;SDS011;10473;42.734;24.258;2022-08-04T13:29:49;1.90;;;1.67;;
20627;SDS011;10473;42.734;24.258;2022-08-04T13:32:19;3.10;;;1.93;;
20627;SDS011;10473;42.734;24.258;2022-08-04T13:34:51;3.23;;;1.50;;
20627;SDS011;10473;42.734;24.258;2022-08-04T13:37:23;1.50;;;1.40;;
20627;SDS011;10473;42.734;24.258;2022-08-04T13:39:52;2.00;;;1.25;;
20627;SDS011;10473;42.734;24.258;2022-08-04T13:42:21;1.50;;;1.40;;
20627;SDS011;10473;42.734;24.258;2022-08-04T13:44:52;1.37;;;1.27;;
20627;SDS011;10473;42.734;24.258;2022-08-04T13:47:24;1.60;;;1.50;;
20627;SDS011;10473;42.734;24.258;2022-08-04T13:50:06;1.37;;;1.27;;
20627;SDS011;10473;42.734;24.258;2022-08-04T13:52:38;3.00;;;1.60;;
20627;SDS011;10473;42.734;24.258;2022-08-04T13:55:07;1.30;;;1.20;;
20627;SDS011;10473;42.734;24.258;2022-08-04T13:57:42;2.00;;;1.43;;
20627;SDS011;10473;42.734;24.258;2022-08-04T14:00:11;1.67;;;1.30;;
20627;SDS011;10473;42.734;24.258;2022-08-04T14:02:42;1.43;;;1.33;;
20627;SDS011;10473;42.734;24.258;2022-08-04T14:05:14;1.53;;;1.43;;
20627;SDS011;10473;42.734;24.258;2022-08-04T14:07:53;1.47;;;1.37;;
20627;SDS011;10473;42.734;24.258;2022-08-04T14:10:24;2.10;;;1.20;;
20627;SDS011;10473;42.734;24.258;2022-08-04T14:12:51;1.60;;;1.50;;
20627;SDS011;10473;42.734;24.258;2022-08-04T14:15:31;3.03;;;1.50;;
20627;SDS011;10473;42.734;24.258;2022-08-04T14:18:16;1.40;;;1.30;;
20627;SDS011;10473;42.734;24.258;2022-08-04T14:21:01;1.70;;;1.50;;
20627;SDS011;10473;42.734;24.258;2022-08-04T14:23:46;5.80;;;1.70;;
20627;SDS011;10473;42.734;24.258;2022-08-04T14:26:19;2.90;;;1.20;;
20627;SDS011;10473;42.734;24.258;2022-08-04T14:28:50;1.57;;;1.43;;
20627;SDS011;10473;42.734;24.258;2022-08-04T14:31:20;1.40;;;1.30;;
20627;SDS011;10473;42.734;24.258;2022-08-04T14:33:49;1.67;;;1.57;;
20627;SDS011;10473;42.734;24.258;2022-08-04T14:36:19;2.00;;;1.30;;
20627;SDS011;10473;42.734;24.258;2022-08-04T14:38:49;2.23;;;1.20;;
20627;SDS011;10473;42.734;24.258;2022-08-04T14:41:19;1.40;;;1.30;;
20627;SDS011;10473;42.734;24.258;2022-08-04T14:43:49;1.40;;;1.30;;
20627;SDS011;10473;42.734;24.258;2022-08-04T14:46:18;2.00;;;1.60;;
20627;SDS011;10473;42.734;24.258;2022-08-04T14:49:04;1.60;;;1.50;;
20627;SDS011;10473;42.734;24.258;2022-08-04T14:51:36;1.87;;;1.73;;
20627;SDS011;10473;42.734;24.258;2022-08-04T14:54:06;1.77;;;1.43;;
20627;SDS011;10473;42.734;24.258;2022-08-04T14:56:35;1.93;;;1.40;;
20627;SDS011;10473;42.734;24.258;2022-08-04T14:59:04;3.57;;;1.63;;
20627;SDS011;10473;42.734;24.258;2022-08-04T15:01:34;1.70;;;1.50;;
20627;SDS011;10473;42.734;24.258;2022-08-04T15:04:04;2.60;;;1.60;;
20627;SDS011;10473;42.734;24.258;2022-08-04T15:06:33;3.23;;;1.60;;
20627;SDS011;10473;42.734;24.258;2022-08-04T15:09:03;1.60;;;1.47;;
20627;SDS011;10473;42.734;24.258;2022-08-04T15:11:33;1.73;;;1.63;;
20627;SDS011;10473;42.734;24.258;2022-08-04T15:14:01;1.37;;;1.27;;
20627;SDS011;10473;42.734;24.258;2022-08-04T15:16:30;1.50;;;1.30;;
20627;SDS011;10473;42.734;24.258;2022-08-04T15:18:59;4.03;;;1.30;;
20627;SDS011;10473;42.734;24.258;2022-08-04T15:21:28;1.83;;;1.70;;
20627;SDS011;10473;42.734;24.258;2022-08-04T15:23:57;1.33;;;1.23;;
20627;SDS011;10473;42.734;24.258;2022-08-04T15:26:28;1.60;;;1.50;;
20627;SDS011;10473;42.734;24.258;2022-08-04T15:29:02;2.23;;;1.70;;
20627;SDS011;10473;42.734;24.258;2022-08-04T15:31:37;1.90;;;1.70;;
20627;SDS011;10473;42.734;24.258;2022-08-04T15:34:07;1.87;;;1.40;;
20627;SDS011;10473;42.734;24.258;2022-08-04T15:36:37;2.40;;;1.47;;
20627;SDS011;10473;42.734;24.258;2022-08-04T15:39:17;1.80;;;1.43;;
20627;SDS011;10473;42.734;24.258;2022-08-04T15:41:57;2.03;;;1.60;;
20627;SDS011;10473;42.734;24.258;2022-08-04T15:44:48;1.30;;;1.20;;
20627;SDS011;10473;42.734;24.258;2022-08-04T15:47:38;2.70;;;1.80;;
20627;SDS011;10473;42.734;24.258;2022-08-04T15:50:07;2.77;;;1.70;;
20627;SDS011;10473;42.734;24.258;2022-08-04T15:55:29;2.33;;;1.70;;
20627;SDS011;10473;42.734;24.258;2022-08-04T15:57:59;4.50;;;1.80;;
20627;SDS011;10473;42.734;24.258;2022-08-04T16:00:28;10.50;;;1.83;;
20627;SDS011;10473;42.734;24.258;2022-08-04T16:03:46;1.50;;;1.40;;
20627;SDS011;10473;42.734;24.258;2022-08-04T16:09:20;1.60;;;1.50;;
20627;SDS011;10473;42.734;24.258;2022-08-04T16:11:50;2.40;;;1.63;;
20627;SDS011;10473;42.734;24.258;2022-08-04T16:14:33;2.00;;;1.80;;
20627;SDS011;10473;42.734;24.258;2022-08-04T16:17:13;4.07;;;1.53;;
20627;SDS011;10473;42.734;24.258;2022-08-04T16:20:00;3.30;;;1.63;;
20627;SDS011;10473;42.734;24.258;2022-08-04T16:22:33;2.47;;;1.57;;
20627;SDS011;10473;42.734;24.258;2022-08-04T16:25:04;5.47;;;1.80;;
20627;SDS011;10473;42.734;24.258;2022-08-04T16:27:34;1.83;;;1.73;;
20627;SDS011;10473;42.734;24.258;2022-08-04T16:30:05;3.73;;;1.60;;